createdAt,value
2019-04-04T00:01:52.315Z,70.40
2019-04-04T00:06:02.419Z,70.70
2019-04-04T00:10:12.910Z,70.90
2019-04-04T00:14:22.599Z,71.20
2019-04-04T00:18:32.320Z,71.60
2019-04-04T00:22:42.180Z,71.80
2019-04-04T00:26:51.968Z,72.20
2019-04-04T00:31:01.863Z,72.90
2019-04-04T00:35:11.781Z,72.90
2019-04-04T00:39:21.808Z,73.30
2019-04-04T00:43:31.535Z,74.60
2019-04-04T00:47:41.385Z,75.80
2019-04-04T00:51:51.102Z,76.90
2019-04-04T00:56:00.957Z,78.00
2019-04-04T01:00:10.906Z,79.20
2019-04-04T01:04:20.620Z,82.20
2019-04-04T01:08:30.468Z,84.40
2019-04-04T01:12:40.164Z,86.60
2019-04-04T01:16:50.066Z,86.60
2019-04-04T01:20:59.924Z,87.20
2019-04-04T01:25:10.099Z,88.00
2019-04-04T01:29:19.809Z,88.60
2019-04-04T01:33:29.665Z,89.00
2019-04-04T01:37:39.367Z,89.90
2019-04-04T01:41:50.148Z,90.30
2019-04-04T01:45:59.877Z,90.80
2019-04-04T01:50:10.332Z,91.10
2019-04-04T01:54:20.055Z,91.30
2019-04-04T01:58:29.844Z,91.30
2019-04-04T02:02:39.518Z,91.50
2019-04-04T02:06:49.274Z,91.70
2019-04-04T02:10:59.019Z,92.10
2019-04-04T02:15:13.916Z,92.30
2019-04-04T02:19:24.553Z,92.50
2019-04-04T02:23:33.014Z,92.60
2019-04-04T02:27:42.819Z,92.70
2019-04-04T02:31:57.198Z,92.90
2019-04-04T02:36:06.923Z,93.10
2019-04-04T02:40:16.800Z,93.20
2019-04-04T02:44:26.574Z,93.30
2019-04-04T02:48:36.303Z,93.20
2019-04-04T02:52:46.940Z,93.10
2019-04-04T02:56:56.725Z,93.00
2019-04-04T03:01:06.514Z,92.90
2019-04-04T03:05:18.784Z,93.00
2019-04-04T03:09:27.736Z,93.10
2019-04-04T03:13:37.493Z,93.20
2019-04-04T03:17:47.222Z,93.40
2019-04-04T03:21:56.973Z,93.80
2019-04-04T03:26:06.764Z,94.10
2019-04-04T03:30:17.407Z,94.20
2019-04-04T03:34:27.492Z,94.20
2019-04-04T03:38:37.196Z,94.20
2019-04-04T03:42:46.955Z,93.80
2019-04-04T03:46:56.693Z,93.40
2019-04-04T03:51:06.543Z,93.20
2019-04-04T03:55:16.218Z,92.80
2019-04-04T03:59:25.915Z,92.40
2019-04-04T04:03:35.591Z,92.20
2019-04-04T04:07:45.826Z,91.90
2019-04-04T04:11:57.129Z,91.90
2019-04-04T04:16:06.830Z,91.90
2019-04-04T04:20:16.598Z,91.90
2019-04-04T04:24:26.650Z,91.90
2019-04-04T04:28:37.742Z,91.90
2019-04-04T04:32:47.592Z,91.90
2019-04-04T04:36:57.544Z,91.70
2019-04-04T04:41:07.532Z,91.80
2019-04-04T04:45:17.348Z,91.90
2019-04-04T04:49:27.183Z,92.20
2019-04-04T04:53:36.898Z,92.90
2019-04-04T04:57:46.650Z,92.70
2019-04-04T05:01:56.357Z,92.70
2019-04-04T05:06:06.098Z,92.70
2019-04-04T05:10:15.989Z,92.60
2019-04-04T05:14:25.711Z,92.60
2019-04-04T05:18:35.532Z,92.60
2019-04-04T05:22:45.295Z,92.60
2019-04-04T05:26:55.055Z,92.50
2019-04-04T05:31:04.976Z,92.30
2019-04-04T05:35:15.266Z,92.00
2019-04-04T05:39:25.147Z,91.70
2019-04-04T05:43:37.090Z,91.70
2019-04-04T05:47:46.571Z,91.80
2019-04-04T05:51:56.310Z,91.80
2019-04-04T05:56:06.422Z,91.90
2019-04-04T06:00:16.710Z,91.70
2019-04-04T06:04:26.433Z,91.50
2019-04-04T06:08:38.805Z,91.50
2019-04-04T06:12:48.080Z,91.20
2019-04-04T06:16:58.352Z,91.00
2019-04-04T06:21:08.138Z,91.00
2019-04-04T06:25:17.882Z,91.00
2019-04-04T06:29:27.534Z,91.10
2019-04-04T06:33:37.298Z,91.00
2019-04-04T06:37:47.049Z,90.70
2019-04-04T06:41:56.808Z,90.70
2019-04-04T06:46:06.596Z,90.80
2019-04-04T06:50:16.456Z,90.70
2019-04-04T06:54:26.369Z,90.60
2019-04-04T06:58:36.069Z,90.90
2019-04-04T07:02:47.281Z,90.90
2019-04-04T07:06:59.045Z,91.00
2019-04-04T07:11:20.916Z,90.80
2019-04-04T07:15:21.954Z,90.70
2019-04-04T07:19:31.665Z,90.20
2019-04-04T07:23:42.004Z,90.00
2019-04-04T07:27:51.861Z,88.80
2019-04-04T07:32:01.579Z,88.70
2019-04-04T07:36:11.298Z,86.00
2019-04-04T07:40:21.594Z,85.50
2019-04-04T07:44:31.399Z,85.20
2019-04-04T07:48:41.097Z,84.30
2019-04-04T07:52:50.863Z,83.80
2019-04-04T07:57:00.645Z,81.20
2019-04-04T08:01:10.607Z,79.90
2019-04-04T08:05:20.464Z,80.00
2019-04-04T08:09:30.219Z,82.50
2019-04-04T08:13:39.920Z,78.50
2019-04-04T08:17:49.610Z,78.20
2019-04-04T08:21:59.451Z,77.10
2019-04-04T08:26:10.777Z,77.30
2019-04-04T08:30:23.629Z,78.40
2019-04-04T08:34:36.456Z,79.70
2019-04-04T08:38:45.756Z,76.10
2019-04-04T08:42:55.514Z,74.10
2019-04-04T08:47:08.055Z,73.10
2019-04-04T08:51:19.867Z,72.70
2019-04-04T08:55:29.736Z,67.10
2019-04-04T08:59:41.374Z,67.80
2019-04-04T09:03:52.591Z,65.40
2019-04-04T09:08:03.905Z,64.70
2019-04-04T09:12:14.377Z,66.40
2019-04-04T09:16:24.060Z,67.90
2019-04-04T09:20:35.401Z,67.70
2019-04-04T09:24:45.062Z,66.00
2019-04-04T09:28:56.423Z,63.80
2019-04-04T09:33:06.199Z,62.90
2019-04-04T09:37:15.971Z,63.30
2019-04-04T09:41:27.137Z,64.50
2019-04-04T09:45:36.911Z,61.90
2019-04-04T09:49:46.771Z,61.60
2019-04-04T09:53:57.079Z,62.10
2019-04-04T09:58:07.320Z,61.30
2019-04-04T10:02:17.210Z,60.40
2019-04-04T10:06:26.954Z,60.50
2019-04-04T10:10:38.447Z,59.80
2019-04-04T10:14:48.932Z,58.30
2019-04-04T10:18:58.635Z,58.20
2019-04-04T10:23:08.407Z,58.40
2019-04-04T10:27:18.145Z,57.90
2019-04-04T10:31:28.676Z,57.40
2019-04-04T10:35:38.403Z,58.00
2019-04-04T10:39:48.618Z,60.70
2019-04-04T10:44:00.070Z,62.00
2019-04-04T10:48:10.233Z,62.50
2019-04-04T10:52:19.967Z,61.90
2019-04-04T10:56:31.466Z,60.40
2019-04-04T11:00:42.796Z,60.40
2019-04-04T11:04:52.511Z,59.40
2019-04-04T11:09:05.449Z,58.70
2019-04-04T11:13:15.274Z,58.30
2019-04-04T11:17:26.042Z,58.30
2019-04-04T11:21:35.769Z,57.20
2019-04-04T11:25:46.615Z,57.00
2019-04-04T11:29:57.531Z,57.00
2019-04-04T11:34:07.248Z,57.20
2019-04-04T11:38:19.565Z,57.50
2019-04-04T11:42:29.654Z,57.10
2019-04-04T11:46:40.807Z,57.00
2019-04-04T11:50:50.488Z,56.90
2019-04-04T11:55:01.524Z,56.00
2019-04-04T11:59:12.527Z,55.10
2019-04-04T12:03:22.330Z,53.80
2019-04-04T12:07:32.098Z,51.50
2019-04-04T12:11:41.899Z,49.50
2019-04-04T12:15:51.659Z,49.10
2019-04-04T12:20:04.106Z,47.90
2019-04-04T12:24:13.909Z,50.30
2019-04-04T12:28:24.211Z,52.80
2019-04-04T12:32:33.973Z,54.70
2019-04-04T12:36:45.268Z,55.30
2019-04-04T12:40:55.056Z,55.40
2019-04-04T12:45:07.784Z,55.20
2019-04-04T12:49:17.480Z,55.00
2019-04-04T12:53:27.227Z,54.90
2019-04-04T12:57:39.060Z,55.00
2019-04-04T13:01:49.555Z,55.00
2019-04-04T13:06:00.147Z,55.00
2019-04-04T13:10:11.918Z,54.40
2019-04-04T13:14:23.407Z,53.70
2019-04-04T13:18:33.376Z,53.90
2019-04-04T13:22:43.192Z,53.30
2019-04-04T13:26:52.925Z,53.40
2019-04-04T13:31:02.602Z,52.80
2019-04-04T13:35:12.688Z,52.30
2019-04-04T13:39:23.995Z,48.90
2019-04-04T13:43:33.792Z,47.20
2019-04-04T13:47:46.123Z,45.80
2019-04-04T13:51:55.902Z,44.00
2019-04-04T13:56:06.768Z,43.00
2019-04-04T14:00:16.831Z,43.10
2019-04-04T14:04:27.053Z,42.80
2019-04-04T14:08:39.208Z,39.90
2019-04-04T14:12:48.349Z,39.60
2019-04-04T14:16:58.040Z,39.30
2019-04-04T14:21:07.843Z,39.60
2019-04-04T14:25:17.577Z,38.70
2019-04-04T14:29:28.125Z,38.60
2019-04-04T14:33:37.908Z,39.20
2019-04-04T14:37:47.666Z,39.20
2019-04-04T14:42:00.170Z,38.50
2019-04-04T14:46:09.897Z,38.90
2019-04-04T14:50:20.809Z,39.50
2019-04-04T14:54:30.549Z,39.10
2019-04-04T14:58:40.259Z,39.30
2019-04-04T15:02:50.021Z,39.50
2019-04-04T15:06:59.884Z,39.50
2019-04-04T15:11:09.646Z,39.40
2019-04-04T15:15:19.398Z,39.00
2019-04-04T15:19:29.894Z,39.30
2019-04-04T15:23:39.724Z,39.40
2019-04-04T15:27:49.408Z,39.70
2019-04-04T15:32:00.554Z,39.30
2019-04-04T15:36:10.289Z,40.10
2019-04-04T15:40:20.083Z,40.70
2019-04-04T15:44:31.213Z,40.70
2019-04-04T15:48:40.979Z,41.20
2019-04-04T15:52:50.698Z,40.80
2019-04-04T15:57:00.425Z,41.00
2019-04-04T16:01:10.143Z,41.60
2019-04-04T16:05:21.921Z,41.80
2019-04-04T16:09:32.214Z,41.90
2019-04-04T16:13:41.945Z,41.80
2019-04-04T16:17:52.109Z,41.90
2019-04-04T16:22:01.978Z,42.10
2019-04-04T16:26:12.782Z,42.40
2019-04-04T16:30:22.527Z,42.70
2019-04-04T16:34:32.289Z,42.80
2019-04-04T16:38:42.002Z,43.40
2019-04-04T16:42:51.779Z,44.00
2019-04-04T16:47:01.482Z,44.60
2019-04-04T16:51:11.889Z,44.90
2019-04-04T16:55:21.614Z,45.40
2019-04-04T16:59:32.660Z,46.10
2019-04-04T17:03:43.601Z,45.80
2019-04-04T17:07:54.421Z,46.10
2019-04-04T17:12:14.429Z,46.80
2019-04-04T17:16:16.481Z,47.50
2019-04-04T17:20:26.241Z,47.70
2019-04-04T17:24:36.049Z,48.20
2019-04-04T17:28:47.940Z,48.40
2019-04-04T17:32:57.956Z,48.70
2019-04-04T17:37:07.659Z,49.10
2019-04-04T17:41:17.965Z,49.50
2019-04-04T17:45:27.944Z,49.80
2019-04-04T17:49:38.754Z,49.90
2019-04-04T17:53:48.464Z,50.10
2019-04-04T17:58:00.074Z,53.90
2019-04-04T18:02:09.705Z,60.30
2019-04-04T18:06:19.433Z,65.10
2019-04-04T18:10:29.156Z,69.20
2019-04-04T18:14:40.993Z,72.30
2019-04-04T18:18:50.831Z,75.10
2019-04-04T18:23:01.168Z,76.80
2019-04-04T18:27:11.044Z,77.70
2019-04-04T18:31:20.724Z,78.60
2019-04-04T18:35:30.444Z,79.60
2019-04-04T18:39:40.157Z,79.50
2019-04-04T18:43:49.911Z,80.40
2019-04-04T18:47:59.600Z,81.50
2019-04-04T18:52:09.337Z,81.80
2019-04-04T18:56:19.072Z,82.80
2019-04-04T19:00:28.822Z,83.50
2019-04-04T19:04:38.591Z,84.00
2019-04-04T19:08:50.550Z,84.50
2019-04-04T19:13:05.113Z,85.00
2019-04-04T19:17:11.306Z,84.90
2019-04-04T19:21:21.061Z,85.00
2019-04-04T19:25:30.783Z,85.70
2019-04-04T19:29:40.758Z,87.60
2019-04-04T19:33:50.484Z,87.50
2019-04-04T19:38:00.686Z,88.00
2019-04-04T19:42:10.530Z,88.30
2019-04-04T19:46:20.362Z,89.20
2019-04-04T19:50:30.121Z,88.40
2019-04-04T19:54:39.877Z,88.40
2019-04-04T19:58:51.155Z,88.80
2019-04-04T20:03:00.928Z,89.30
2019-04-04T20:07:10.662Z,89.70
2019-04-04T20:11:21.775Z,90.00
2019-04-04T20:15:31.715Z,90.20
2019-04-04T20:19:41.423Z,90.50
2019-04-04T20:23:51.317Z,90.60
2019-04-04T20:28:01.375Z,90.90
2019-04-04T20:32:15.522Z,91.00
2019-04-04T20:36:26.587Z,91.00
2019-04-04T20:40:38.543Z,91.10
2019-04-04T20:44:48.405Z,91.20
2019-04-04T20:48:58.866Z,91.40
2019-04-04T20:53:09.063Z,91.60
2019-04-04T20:57:18.857Z,91.80
2019-04-04T21:01:28.719Z,91.90
2019-04-04T21:05:38.448Z,91.90
2019-04-04T21:09:48.194Z,92.00
2019-04-04T21:13:57.872Z,92.10
2019-04-04T21:18:07.605Z,92.40
2019-04-04T21:22:26.835Z,92.50
2019-04-04T21:26:28.702Z,92.70
2019-04-04T21:30:38.472Z,92.80
2019-04-04T21:34:48.368Z,92.90
2019-04-04T21:38:58.504Z,93.10
2019-04-04T21:43:08.261Z,93.40
2019-04-04T21:47:18.014Z,93.60
2019-04-04T21:51:27.801Z,93.70
2019-04-04T21:55:37.509Z,93.80
2019-04-04T21:59:47.213Z,93.90
2019-04-04T22:03:56.971Z,93.70
2019-04-04T22:08:06.771Z,93.70
2019-04-04T22:12:16.584Z,93.80
2019-04-04T22:16:26.299Z,93.80
2019-04-04T22:20:36.023Z,93.80
2019-04-04T22:24:45.750Z,93.80
2019-04-04T22:28:55.481Z,93.90
2019-04-04T22:33:05.231Z,94.00
2019-04-04T22:37:15.023Z,94.00
2019-04-04T22:41:24.742Z,94.00
2019-04-04T22:45:34.473Z,94.20
2019-04-04T22:49:44.181Z,94.30
2019-04-04T22:53:53.924Z,94.40
2019-04-04T22:58:03.651Z,94.50
2019-04-04T23:02:13.383Z,94.50
2019-04-04T23:06:23.112Z,94.60
2019-04-04T23:10:33.234Z,94.50
2019-04-04T23:14:48.303Z,94.50
2019-04-04T23:18:54.315Z,94.50
2019-04-04T23:23:04.126Z,94.60
2019-04-04T23:27:13.834Z,94.60
2019-04-04T23:31:23.542Z,94.60
2019-04-04T23:35:31.101Z,94.60
2019-04-04T23:39:37.476Z,94.60
2019-04-04T23:43:43.821Z,94.80
2019-04-04T23:47:50.248Z,94.70
2019-04-04T23:51:56.654Z,94.60
2019-04-04T23:56:03.154Z,94.60
